sensor_id;sensor_type;location;lat;lon;timestamp;pressure;altitude;pressure_sealevel;temperature;humidity
55044;BME280;54902;50.420;18.854;2023-03-13T00:00:13;100832.77;;;4.88;63.68
55044;BME280;54902;50.420;18.854;2023-03-13T00:00:45;100821.05;;;4.88;63.71
55044;BME280;54902;50.420;18.854;2023-03-13T00:01:20;100830.91;;;4.89;63.70
55044;BME280;54902;50.420;18.854;2023-03-13T00:01:51;100826.46;;;4.88;63.68
55044;BME280;54902;50.420;18.854;2023-03-13T00:02:22;100815.63;;;4.88;63.72
55044;BME280;54902;50.420;18.854;2023-03-13T00:02:53;100816.52;;;4.88;63.73
55044;BME280;54902;50.420;18.854;2023-03-13T00:03:24;100817.38;;;4.89;63.76
55044;BME280;54902;50.420;18.854;2023-03-13T00:03:55;100818.24;;;4.89;63.80
55044;BME280;54902;50.420;18.854;2023-03-13T00:04:26;100810.12;;;4.89;63.79
55044;BME280;54902;50.420;18.854;2023-03-13T00:04:57;100823.65;;;4.89;63.81
55044;BME280;54902;50.420;18.854;2023-03-13T00:05:28;100813.73;;;4.90;63.83
55044;BME280;54902;50.420;18.854;2023-03-13T00:05:59;100821.84;;;4.90;63.84
55044;BME280;54902;50.420;18.854;2023-03-13T00:06:33;100822.70;;;4.90;63.87
55044;BME280;54902;50.420;18.854;2023-03-13T00:07:04;100814.58;;;4.90;63.91
55044;BME280;54902;50.420;18.854;2023-03-13T00:07:37;100816.43;;;4.90;63.88
55044;BME280;54902;50.420;18.854;2023-03-13T00:08:07;100820.89;;;4.91;63.85
55044;BME280;54902;50.420;18.854;2023-03-13T00:08:39;100820.89;;;4.91;63.86
55044;BME280;54902;50.420;18.854;2023-03-13T00:09:12;100816.33;;;4.91;63.84
55044;BME280;54902;50.420;18.854;2023-03-13T00:09:43;100817.20;;;4.92;63.83
55044;BME280;54902;50.420;18.854;2023-03-13T00:10:14;100828.02;;;4.92;63.87
55044;BME280;54902;50.420;18.854;2023-03-13T00:10:45;100822.60;;;4.92;63.89
55044;BME280;54902;50.420;18.854;2023-03-13T00:11:16;100822.60;;;4.92;63.91
55044;BME280;54902;50.420;18.854;2023-03-13T00:11:47;100817.20;;;4.92;63.93
55044;BME280;54902;50.420;18.854;2023-03-13T00:12:18;100819.89;;;4.92;63.93
55044;BME280;54902;50.420;18.854;2023-03-13T00:12:49;100820.78;;;4.92;63.93
55044;BME280;54902;50.420;18.854;2023-03-13T00:13:21;100824.36;;;4.93;63.93
55044;BME280;54902;50.420;18.854;2023-03-13T00:13:57;100831.52;;;4.94;63.88
55044;BME280;54902;50.420;18.854;2023-03-13T00:14:28;100820.70;;;4.94;63.91
55044;BME280;54902;50.420;18.854;2023-03-13T00:14:59;100821.55;;;4.94;63.92
55044;BME280;54902;50.420;18.854;2023-03-13T00:15:30;100814.33;;;4.95;63.93
55044;BME280;54902;50.420;18.854;2023-03-13T00:16:02;100817.98;;;4.94;63.94
55044;BME280;54902;50.420;18.854;2023-03-13T00:16:34;100822.44;;;4.95;63.97
55044;BME280;54902;50.420;18.854;2023-03-13T00:17:07;100817.03;;;4.95;63.99
55044;BME280;54902;50.420;18.854;2023-03-13T00:17:38;100819.73;;;4.95;63.98
55044;BME280;54902;50.420;18.854;2023-03-13T00:18:08;100815.27;;;4.94;63.96
55044;BME280;54902;50.420;18.854;2023-03-13T00:18:46;100822.44;;;4.95;63.98
55044;BME280;54902;50.420;18.854;2023-03-13T00:19:18;100820.59;;;4.95;64.00
55044;BME280;54902;50.420;18.854;2023-03-13T00:19:51;100822.44;;;4.95;64.01
55044;BME280;54902;50.420;18.854;2023-03-13T00:20:22;100820.49;;;4.97;63.97
55044;BME280;54902;50.420;18.854;2023-03-13T00:21:01;100809.67;;;4.97;64.00
55044;BME280;54902;50.420;18.854;2023-03-13T00:21:33;100815.08;;;4.97;64.04
55044;BME280;54902;50.420;18.854;2023-03-13T00:22:04;100806.10;;;4.96;64.05
55044;BME280;54902;50.420;18.854;2023-03-13T00:22:35;100797.98;;;4.96;64.08
55044;BME280;54902;50.420;18.854;2023-03-13T00:23:06;100798.84;;;4.97;64.03
55044;BME280;54902;50.420;18.854;2023-03-13T00:23:37;100795.17;;;4.98;64.10
55044;BME280;54902;50.420;18.854;2023-03-13T00:24:10;100789.77;;;4.98;64.11
55044;BME280;54902;50.420;18.854;2023-03-13T00:24:41;100795.17;;;4.98;64.13
55044;BME280;54902;50.420;18.854;2023-03-13T00:25:12;100793.34;;;4.98;64.19
55044;BME280;54902;50.420;18.854;2023-03-13T00:25:43;100792.47;;;4.98;64.21
55044;BME280;54902;50.420;18.854;2023-03-13T00:26:16;100789.77;;;4.98;64.23
55044;BME280;54902;50.420;18.854;2023-03-13T00:26:48;100791.51;;;4.99;64.21
55044;BME280;54902;50.420;18.854;2023-03-13T00:27:18;100794.22;;;4.99;64.25
55044;BME280;54902;50.420;18.854;2023-03-13T00:27:49;100792.38;;;4.99;64.28
55044;BME280;54902;50.420;18.854;2023-03-13T00:28:20;100794.22;;;4.99;64.26
55044;BME280;54902;50.420;18.854;2023-03-13T00:28:52;100789.66;;;4.99;64.30
55044;BME280;54902;50.420;18.854;2023-03-13T00:29:23;100780.69;;;4.99;64.29
55044;BME280;54902;50.420;18.854;2023-03-13T00:29:54;100776.99;;;5.00;64.29
55044;BME280;54902;50.420;18.854;2023-03-13T00:30:25;100776.99;;;5.00;64.29
55044;BME280;54902;50.420;18.854;2023-03-13T00:31:07;100770.72;;;4.99;64.31
55044;BME280;54902;50.420;18.854;2023-03-13T00:31:38;100771.58;;;5.00;64.33
55044;BME280;54902;50.420;18.854;2023-03-13T00:32:09;100778.74;;;5.01;64.36
55044;BME280;54902;50.420;18.854;2023-03-13T00:32:41;100776.93;;;5.01;64.38
55044;BME280;54902;50.420;18.854;2023-03-13T00:33:12;100768.81;;;5.01;64.40
55044;BME280;54902;50.420;18.854;2023-03-13T00:33:45;100783.20;;;5.02;64.38
55044;BME280;54902;50.420;18.854;2023-03-13T00:34:16;100780.49;;;5.02;64.45
55044;BME280;54902;50.420;18.854;2023-03-13T00:34:47;100780.49;;;5.02;64.45
55044;BME280;54902;50.420;18.854;2023-03-13T00:35:18;100781.34;;;5.02;64.46
55044;BME280;54902;50.420;18.854;2023-03-13T00:35:49;100775.94;;;5.02;64.50
55044;BME280;54902;50.420;18.854;2023-03-13T00:36:25;100775.07;;;5.02;64.51
55044;BME280;54902;50.420;18.854;2023-03-13T00:36:56;100770.52;;;5.02;64.53
55044;BME280;54902;50.420;18.854;2023-03-13T00:37:27;100771.41;;;5.03;64.54
55044;BME280;54902;50.420;18.854;2023-03-13T00:37:58;100783.10;;;5.03;64.49
55044;BME280;54902;50.420;18.854;2023-03-13T00:38:29;100773.13;;;5.04;64.46
55044;BME280;54902;50.420;18.854;2023-03-13T00:39:01;100779.44;;;5.04;64.56
55044;BME280;54902;50.420;18.854;2023-03-13T00:39:32;100773.92;;;5.06;64.59
55044;BME280;54902;50.420;18.854;2023-03-13T00:40:04;100773.07;;;5.05;64.59
55044;BME280;54902;50.420;18.854;2023-03-13T00:40:35;100773.07;;;5.05;64.60
55044;BME280;54902;50.420;18.854;2023-03-13T00:41:10;100764.05;;;5.05;64.63
55044;BME280;54902;50.420;18.854;2023-03-13T00:41:41;100755.63;;;4.95;64.63
55044;BME280;54902;50.420;18.854;2023-03-13T00:42:14;100771.22;;;5.06;64.62
55044;BME280;54902;50.420;18.854;2023-03-13T00:42:45;100773.92;;;5.06;64.68
55044;BME280;54902;50.420;18.854;2023-03-13T00:43:16;100777.49;;;5.06;64.74
55044;BME280;54902;50.420;18.854;2023-03-13T00:43:47;100771.22;;;5.06;64.75
55044;BME280;54902;50.420;18.854;2023-03-13T00:44:19;100769.36;;;5.06;64.61
55044;BME280;54902;50.420;18.854;2023-03-13T00:44:49;100768.41;;;5.07;64.59
55044;BME280;54902;50.420;18.854;2023-03-13T00:45:20;100774.72;;;5.08;64.65
55044;BME280;54902;50.420;18.854;2023-03-13T00:45:51;100771.12;;;5.07;64.65
55044;BME280;54902;50.420;18.854;2023-03-13T00:46:24;100773.82;;;5.07;64.65
55044;BME280;54902;50.420;18.854;2023-03-13T00:46:56;100774.72;;;5.08;64.70
55044;BME280;54902;50.420;18.854;2023-03-13T00:47:27;100778.28;;;5.08;64.72
55044;BME280;54902;50.420;18.854;2023-03-13T00:47:58;100777.43;;;5.08;64.77
55044;BME280;54902;50.420;18.854;2023-03-13T00:48:29;100780.99;;;5.08;64.74
55044;BME280;54902;50.420;18.854;2023-03-13T00:49:01;100773.73;;;5.09;64.78
55044;BME280;54902;50.420;18.854;2023-03-13T00:49:32;100779.14;;;5.09;64.85
55044;BME280;54902;50.420;18.854;2023-03-13T00:50:03;100772.77;;;5.10;64.90
55044;BME280;54902;50.420;18.854;2023-03-13T00:50:34;100771.91;;;5.09;64.90
55044;BME280;54902;50.420;18.854;2023-03-13T00:51:07;100765.60;;;5.09;64.98
55044;BME280;54902;50.420;18.854;2023-03-13T00:51:38;100767.35;;;5.10;65.03
55044;BME280;54902;50.420;18.854;2023-03-13T00:52:09;100768.21;;;5.10;64.96
55044;BME280;54902;50.420;18.854;2023-03-13T00:52:40;100768.21;;;5.10;64.92
55044;BME280;54902;50.420;18.854;2023-03-13T00:53:11;100763.68;;;5.11;65.00
55044;BME280;54902;50.420;18.854;2023-03-13T00:53:42;100776.27;;;5.12;65.05
55044;BME280;54902;50.420;18.854;2023-03-13T00:54:14;100776.27;;;5.12;64.97
55044;BME280;54902;50.420;18.854;2023-03-13T00:54:45;100771.81;;;5.11;64.96
55044;BME280;54902;50.420;18.854;2023-03-13T00:55:16;100778.98;;;5.12;64.87
55044;BME280;54902;50.420;18.854;2023-03-13T00:55:59;100759.02;;;5.13;64.89
55044;BME280;54902;50.420;18.854;2023-03-13T00:56:30;100761.73;;;5.13;65.00
55044;BME280;54902;50.420;18.854;2023-03-13T00:57:01;100764.44;;;5.13;65.06
55044;BME280;54902;50.420;18.854;2023-03-13T00:57:32;100768.04;;;5.13;65.02
55044;BME280;54902;50.420;18.854;2023-03-13T00:58:07;100770.74;;;5.13;64.99
55044;BME280;54902;50.420;18.854;2023-03-13T00:58:40;100763.49;;;5.14;65.01
55044;BME280;54902;50.420;18.854;2023-03-13T00:59:13;100760.68;;;5.15;65.03
55044;BME280;54902;50.420;18.854;2023-03-13T00:59:43;100766.20;;;5.14;65.08
55044;BME280;54902;50.420;18.854;2023-03-13T01:00:15;100759.83;;;5.15;65.12
55044;BME280;54902;50.420;18.854;2023-03-13T01:00:46;100762.52;;;5.15;65.08
55044;BME280;54902;50.420;18.854;2023-03-13T01:01:23;100766.09;;;5.15;65.14
55044;BME280;54902;50.420;18.854;2023-03-13T01:01:54;100772.40;;;5.16;65.16
55044;BME280;54902;50.420;18.854;2023-03-13T01:02:25;100767.84;;;5.16;65.09
55044;BME280;54902;50.420;18.854;2023-03-13T01:02:56;100760.59;;;5.17;65.15
55044;BME280;54902;50.420;18.854;2023-03-13T01:03:27;100766.09;;;5.15;65.24
55044;BME280;54902;50.420;18.854;2023-03-13T01:04:01;100758.76;;;5.17;65.28
55044;BME280;54902;50.420;18.854;2023-03-13T01:04:32;100763.29;;;5.17;65.32
55044;BME280;54902;50.420;18.854;2023-03-13T01:05:03;100762.43;;;5.16;65.36
55044;BME280;54902;50.420;18.854;2023-03-13T01:05:34;100767.75;;;5.18;65.38
55044;BME280;54902;50.420;18.854;2023-03-13T01:06:08;100754.21;;;5.18;65.38
55044;BME280;54902;50.420;18.854;2023-03-13T01:06:40;100779.44;;;5.18;65.42
55044;BME280;54902;50.420;18.854;2023-03-13T01:07:14;100774.02;;;5.18;65.44
55044;BME280;54902;50.420;18.854;2023-03-13T01:07:45;100781.18;;;5.19;65.40
55044;BME280;54902;50.420;18.854;2023-03-13T01:08:16;100775.77;;;5.19;65.39
55044;BME280;54902;50.420;18.854;2023-03-13T01:08:47;100784.78;;;5.19;65.39
55044;BME280;54902;50.420;18.854;2023-03-13T01:09:18;100782.07;;;5.19;65.42
55044;BME280;54902;50.420;18.854;2023-03-13T01:09:49;100775.66;;;5.20;65.48
55044;BME280;54902;50.420;18.854;2023-03-13T01:10:21;100791.05;;;5.20;65.35
55044;BME280;54902;50.420;18.854;2023-03-13T01:11:02;100782.83;;;5.21;65.41
55044;BME280;54902;50.420;18.854;2023-03-13T01:11:35;100788.25;;;5.21;65.34
55044;BME280;54902;50.420;18.854;2023-03-13T01:12:07;100783.73;;;5.22;65.33
55044;BME280;54902;50.420;18.854;2023-03-13T01:12:38;100773.75;;;5.22;65.28
55044;BME280;54902;50.420;18.854;2023-03-13T01:13:09;100775.50;;;5.23;65.26
55044;BME280;54902;50.420;18.854;2023-03-13T01:13:40;100786.34;;;5.23;65.29
55044;BME280;54902;50.420;18.854;2023-03-13T01:14:17;100790.75;;;5.24;65.35
55044;BME280;54902;50.420;18.854;2023-03-13T01:14:49;100784.48;;;5.24;65.30
55044;BME280;54902;50.420;18.854;2023-03-13T01:15:20;100793.46;;;5.24;65.35
55044;BME280;54902;50.420;18.854;2023-03-13T01:15:51;100787.09;;;5.25;65.37
55044;BME280;54902;50.420;18.854;2023-03-13T01:16:23;100787.09;;;5.25;65.32
55044;BME280;54902;50.420;18.854;2023-03-13T01:16:55;100787.98;;;5.26;65.24
55044;BME280;54902;50.420;18.854;2023-03-13T01:17:26;100788.83;;;5.26;65.31
55044;BME280;54902;50.420;18.854;2023-03-13T01:17:57;100790.69;;;5.26;65.29
55044;BME280;54902;50.420;18.854;2023-03-13T01:18:27;100789.70;;;5.27;65.35
55044;BME280;54902;50.420;18.854;2023-03-13T01:19:00;100778.01;;;5.26;65.34
55044;BME280;54902;50.420;18.854;2023-03-13T01:19:31;100790.59;;;5.27;65.43
55044;BME280;54902;50.420;18.854;2023-03-13T01:20:03;100790.59;;;5.27;65.38
55044;BME280;54902;50.420;18.854;2023-03-13T01:20:35;100791.45;;;5.28;65.40
55044;BME280;54902;50.420;18.854;2023-03-13T01:21:06;100788.74;;;5.28;65.48
55044;BME280;54902;50.420;18.854;2023-03-13T01:21:38;100786.89;;;5.28;65.48
55044;BME280;54902;50.420;18.854;2023-03-13T01:22:09;100787.79;;;5.29;65.48
55044;BME280;54902;50.420;18.854;2023-03-13T01:22:42;100788.64;;;5.29;65.41
55044;BME280;54902;50.420;18.854;2023-03-13T01:23:13;100791.35;;;5.29;65.46
55044;BME280;54902;50.420;18.854;2023-03-13T01:23:47;100786.82;;;5.30;65.53
55044;BME280;54902;50.420;18.854;2023-03-13T01:24:18;100781.41;;;5.30;65.64
55044;BME280;54902;50.420;18.854;2023-03-13T01:24:49;100776.84;;;5.30;65.60
55044;BME280;54902;50.420;18.854;2023-03-13T01:25:23;100782.27;;;5.30;65.51
55044;BME280;54902;50.420;18.854;2023-03-13T01:25:55;100776.84;;;5.30;65.57
55044;BME280;54902;50.420;18.854;2023-03-13T01:26:27;100780.41;;;5.31;65.71
55044;BME280;54902;50.420;18.854;2023-03-13T01:26:58;100780.31;;;5.32;65.74
55044;BME280;54902;50.420;18.854;2023-03-13T01:27:29;100778.59;;;5.31;65.76
55044;BME280;54902;50.420;18.854;2023-03-13T01:28:00;100782.17;;;5.32;65.64
55044;BME280;54902;50.420;18.854;2023-03-13T01:28:32;100780.31;;;5.32;65.71
55044;BME280;54902;50.420;18.854;2023-03-13T01:29:03;100785.73;;;5.32;65.74
55044;BME280;54902;50.420;18.854;2023-03-13T01:29:34;100787.48;;;5.33;65.77
55044;BME280;54902;50.420;18.854;2023-03-13T01:30:06;100775.79;;;5.33;65.69
55044;BME280;54902;50.420;18.854;2023-03-13T01:30:37;100791.15;;;5.32;65.68
55044;BME280;54902;50.420;18.854;2023-03-13T01:31:12;100783.91;;;5.33;65.71
55044;BME280;54902;50.420;18.854;2023-03-13T01:31:44;100779.35;;;5.33;65.74
55044;BME280;54902;50.420;18.854;2023-03-13T01:32:14;100782.96;;;5.34;65.74
55044;BME280;54902;50.420;18.854;2023-03-13T01:32:45;100790.98;;;5.35;65.75
55044;BME280;54902;50.420;18.854;2023-03-13T01:33:16;100788.37;;;5.34;65.67
55044;BME280;54902;50.420;18.854;2023-03-13T01:33:50;100787.38;;;5.35;65.63
55044;BME280;54902;50.420;18.854;2023-03-13T01:34:21;100786.41;;;5.36;65.61
55044;BME280;54902;50.420;18.854;2023-03-13T01:34:52;100791.84;;;5.36;65.67
55044;BME280;54902;50.420;18.854;2023-03-13T01:35:23;100776.48;;;5.36;65.77
55044;BME280;54902;50.420;18.854;2023-03-13T01:36:02;100783.72;;;5.36;65.75
55044;BME280;54902;50.420;18.854;2023-03-13T01:36:35;100787.32;;;5.36;65.85
55044;BME280;54902;50.420;18.854;2023-03-13T01:37:06;100776.48;;;5.36;65.88
55044;BME280;54902;50.420;18.854;2023-03-13T01:37:37;100774.73;;;5.35;65.84
55044;BME280;54902;50.420;18.854;2023-03-13T01:38:08;100781.90;;;5.36;65.91
55044;BME280;54902;50.420;18.854;2023-03-13T01:38:40;100774.63;;;5.37;65.85
55044;BME280;54902;50.420;18.854;2023-03-13T01:39:11;100766.50;;;5.37;66.00
55044;BME280;54902;50.420;18.854;2023-03-13T01:39:42;100771.06;;;5.36;66.11
55044;BME280;54902;50.420;18.854;2023-03-13T01:40:13;100772.78;;;5.37;66.15
55044;BME280;54902;50.420;18.854;2023-03-13T01:40:48;100770.96;;;5.38;66.15
55044;BME280;54902;50.420;18.854;2023-03-13T01:41:20;100779.95;;;5.38;66.16
55044;BME280;54902;50.420;18.854;2023-03-13T01:41:51;100778.98;;;5.39;66.27
55044;BME280;54902;50.420;18.854;2023-03-13T01:42:22;100769.11;;;5.38;66.22
55044;BME280;54902;50.420;18.854;2023-03-13T01:42:55;100765.72;;;5.35;66.40
55044;BME280;54902;50.420;18.854;2023-03-13T01:43:29;100776.27;;;5.39;66.26
55044;BME280;54902;50.420;18.854;2023-03-13T01:44:01;100772.68;;;5.39;66.19
55044;BME280;54902;50.420;18.854;2023-03-13T01:46:07;100771.72;;;5.40;66.28
55044;BME280;54902;50.420;18.854;2023-03-13T01:46:39;100768.25;;;5.38;66.00
55044;BME280;54902;50.420;18.854;2023-03-13T01:47:10;100767.19;;;5.40;66.18
55044;BME280;54902;50.420;18.854;2023-03-13T01:47:41;100766.30;;;5.40;66.25
55044;BME280;54902;50.420;18.854;2023-03-13T01:48:12;100768.91;;;5.41;66.25
55044;BME280;54902;50.420;18.854;2023-03-13T01:49:30;100772.60;;;5.40;66.16
55044;BME280;54902;50.420;18.854;2023-03-13T01:50:05;100777.03;;;5.41;66.22
55044;BME280;54902;50.420;18.854;2023-03-13T01:50:36;100771.62;;;5.41;66.23
55044;BME280;54902;50.420;18.854;2023-03-13T01:51:15;100775.21;;;5.42;66.25
55044;BME280;54902;50.420;18.854;2023-03-13T01:51:53;100768.91;;;5.41;66.33
55044;BME280;54902;50.420;18.854;2023-03-13T01:52:27;100773.47;;;5.41;66.35
55044;BME280;54902;50.420;18.854;2023-03-13T01:53:01;100776.08;;;5.42;66.42
55044;BME280;54902;50.420;18.854;2023-03-13T01:53:33;100773.36;;;5.42;66.47
55044;BME280;54902;50.420;18.854;2023-03-13T01:54:10;100776.08;;;5.42;66.42
55044;BME280;54902;50.420;18.854;2023-03-13T01:54:48;100780.53;;;5.43;66.47
55044;BME280;54902;50.420;18.854;2023-03-13T01:55:19;100775.11;;;5.43;66.30
55044;BME280;54902;50.420;18.854;2023-03-13T01:55:52;100775.98;;;5.44;66.21
55044;BME280;54902;50.420;18.854;2023-03-13T01:56:37;100771.45;;;5.44;66.30
55044;BME280;54902;50.420;18.854;2023-03-13T01:57:32;100774.15;;;5.44;66.34
55044;BME280;54902;50.420;18.854;2023-03-13T01:57:53;100766.89;;;5.45;66.33
55044;BME280;54902;50.420;18.854;2023-03-13T01:58:25;100774.15;;;5.44;66.34
55044;BME280;54902;50.420;18.854;2023-03-13T01:58:58;100774.15;;;5.44;66.46
55044;BME280;54902;50.420;18.854;2023-03-13T01:59:34;100774.15;;;5.44;66.55
55044;BME280;54902;50.420;18.854;2023-03-13T02:00:19;100775.02;;;5.45;66.56
55044;BME280;54902;50.420;18.854;2023-03-13T02:00:51;100774.15;;;5.44;66.62
55044;BME280;54902;50.420;18.854;2023-03-13T02:01:23;100765.04;;;5.45;66.60
55044;BME280;54902;50.420;18.854;2023-03-13T02:01:57;100771.34;;;5.46;66.59
55044;BME280;54902;50.420;18.854;2023-03-13T02:02:29;100777.62;;;5.46;66.55
55044;BME280;54902;50.420;18.854;2023-03-13T02:03:08;100771.34;;;5.46;66.67
55044;BME280;54902;50.420;18.854;2023-03-13T02:03:41;100764.08;;;5.46;66.73
55044;BME280;54902;50.420;18.854;2023-03-13T02:04:14;100764.97;;;5.47;66.73
55044;BME280;54902;50.420;18.854;2023-03-13T02:04:48;100770.38;;;5.47;66.67
55044;BME280;54902;50.420;18.854;2023-03-13T02:05:21;100768.54;;;5.47;66.65
55044;BME280;54902;50.420;18.854;2023-03-13T02:05:56;100773.95;;;5.47;66.65
55044;BME280;54902;50.420;18.854;2023-03-13T02:06:30;100775.70;;;5.48;66.66
55044;BME280;54902;50.420;18.854;2023-03-13T02:07:09;100773.95;;;5.47;66.78
55044;BME280;54902;50.420;18.854;2023-03-13T02:07:50;100773.09;;;5.47;66.79
55044;BME280;54902;50.420;18.854;2023-03-13T02:09:09;100784.69;;;5.49;66.68
55044;BME280;54902;50.420;18.854;2023-03-13T02:09:43;100773.85;;;5.49;66.66
55044;BME280;54902;50.420;18.854;2023-03-13T02:10:22;100775.70;;;5.48;66.73
55044;BME280;54902;50.420;18.854;2023-03-13T02:11:45;100774.70;;;5.49;66.54
55044;BME280;54902;50.420;18.854;2023-03-13T02:12:23;100790.00;;;5.50;66.51
55044;BME280;54902;50.420;18.854;2023-03-13T02:12:58;100778.31;;;5.50;66.46
55044;BME280;54902;50.420;18.854;2023-03-13T02:13:30;100779.17;;;5.50;66.57
55044;BME280;54902;50.420;18.854;2023-03-13T02:14:02;100779.17;;;5.50;66.54
55044;BME280;54902;50.420;18.854;2023-03-13T02:14:36;100789.05;;;5.51;66.59
55044;BME280;54902;50.420;18.854;2023-03-13T02:15:16;100786.34;;;5.51;66.64
55044;BME280;54902;50.420;18.854;2023-03-13T02:15:48;100788.08;;;5.52;66.60
55044;BME280;54902;50.420;18.854;2023-03-13T02:16:20;100786.34;;;5.51;66.61
55044;BME280;54902;50.420;18.854;2023-03-13T02:16:52;100793.49;;;5.52;66.66
55044;BME280;54902;50.420;18.854;2023-03-13T02:17:25;100792.61;;;5.52;66.63
55044;BME280;54902;50.420;18.854;2023-03-13T02:17:57;100775.98;;;5.44;66.63
55044;BME280;54902;50.420;18.854;2023-03-13T02:18:30;100780.82;;;5.53;66.69
55044;BME280;54902;50.420;18.854;2023-03-13T02:19:06;100789.80;;;5.53;66.67
55044;BME280;54902;50.420;18.854;2023-03-13T02:19:45;100788.95;;;5.53;66.71
55044;BME280;54902;50.420;18.854;2023-03-13T02:20:18;100794.26;;;5.54;66.65
55044;BME280;54902;50.420;18.854;2023-03-13T02:20:57;100787.09;;;5.53;66.69
55044;BME280;54902;50.420;18.854;2023-03-13T02:21:46;100791.54;;;5.54;66.78
55044;BME280;54902;50.420;18.854;2023-03-13T02:23:11;100802.38;;;5.54;66.71
55044;BME280;54902;50.420;18.854;2023-03-13T02:24:36;100800.56;;;5.55;66.75
55044;BME280;54902;50.420;18.854;2023-03-13T02:25:55;100798.71;;;5.55;66.71
55044;BME280;54902;50.420;18.854;2023-03-13T02:26:26;100802.19;;;5.57;66.73
55044;BME280;54902;50.420;18.854;2023-03-13T02:26:57;100805.00;;;5.56;66.85
55044;BME280;54902;50.420;18.854;2023-03-13T02:27:28;100796.77;;;5.57;66.69
55044;BME280;54902;50.420;18.854;2023-03-13T02:28:11;100802.19;;;5.57;66.73
55044;BME280;54902;50.420;18.854;2023-03-13T02:28:38;100804.90;;;5.57;66.71
55044;BME280;54902;50.420;18.854;2023-03-13T02:29:10;100804.90;;;5.57;66.67
55044;BME280;54902;50.420;18.854;2023-03-13T02:29:47;100806.65;;;5.58;66.63
55044;BME280;54902;50.420;18.854;2023-03-13T02:30:19;100803.94;;;5.58;66.78
55044;BME280;54902;50.420;18.854;2023-03-13T02:30:54;100803.94;;;5.58;66.93
55044;BME280;54902;50.420;18.854;2023-03-13T02:31:25;100809.36;;;5.58;67.01
55044;BME280;54902;50.420;18.854;2023-03-13T02:31:56;100808.38;;;5.59;66.87
55044;BME280;54902;50.420;18.854;2023-03-13T02:32:29;100803.94;;;5.58;66.87
55044;BME280;54902;50.420;18.854;2023-03-13T02:33:01;100813.80;;;5.59;66.94
55044;BME280;54902;50.420;18.854;2023-03-13T02:33:37;100794.56;;;5.50;66.88
55044;BME280;54902;50.420;18.854;2023-03-13T02:34:08;100811.09;;;5.59;66.93
55044;BME280;54902;50.420;18.854;2023-03-13T02:34:42;100804.73;;;5.60;66.96
55044;BME280;54902;50.420;18.854;2023-03-13T02:35:16;100814.66;;;5.60;66.98
55044;BME280;54902;50.420;18.854;2023-03-13T02:35:48;100813.71;;;5.61;66.95
55044;BME280;54902;50.420;18.854;2023-03-13T02:36:19;100813.71;;;5.61;66.96
55044;BME280;54902;50.420;18.854;2023-03-13T02:36:51;100820.02;;;5.61;67.03
55044;BME280;54902;50.420;18.854;2023-03-13T02:37:24;100814.60;;;5.61;67.05
55044;BME280;54902;50.420;18.854;2023-03-13T02:38:01;100811.89;;;5.61;67.08
55044;BME280;54902;50.420;18.854;2023-03-13T02:38:38;100810.90;;;5.62;67.13
55044;BME280;54902;50.420;18.854;2023-03-13T02:39:13;100803.75;;;5.61;67.12
55044;BME280;54902;50.420;18.854;2023-03-13T02:39:48;100811.79;;;5.63;67.12
55044;BME280;54902;50.420;18.854;2023-03-13T02:40:23;100806.38;;;5.63;67.08
55044;BME280;54902;50.420;18.854;2023-03-13T02:40:56;100808.19;;;5.62;67.09
55044;BME280;54902;50.420;18.854;2023-03-13T02:41:29;100803.66;;;5.63;67.11
55044;BME280;54902;50.420;18.854;2023-03-13T02:42:02;100807.23;;;5.63;67.11
55044;BME280;54902;50.420;18.854;2023-03-13T02:42:33;100801.80;;;5.63;67.12
55044;BME280;54902;50.420;18.854;2023-03-13T02:43:08;100812.65;;;5.63;67.12
55044;BME280;54902;50.420;18.854;2023-03-13T02:43:41;100811.69;;;5.64;67.13
55044;BME280;54902;50.420;18.854;2023-03-13T02:44:12;100810.73;;;5.65;67.14
55044;BME280;54902;50.420;18.854;2023-03-13T02:44:45;100811.69;;;5.64;67.25
55044;BME280;54902;50.420;18.854;2023-03-13T02:45:17;100810.73;;;5.65;67.24
55044;BME280;54902;50.420;18.854;2023-03-13T02:46:30;100810.73;;;5.65;67.10
55044;BME280;54902;50.420;18.854;2023-03-13T02:47:01;100817.01;;;5.66;67.24
55044;BME280;54902;50.420;18.854;2023-03-13T02:47:32;100817.01;;;5.66;67.27
55044;BME280;54902;50.420;18.854;2023-03-13T02:48:03;100817.87;;;5.66;67.41
55044;BME280;54902;50.420;18.854;2023-03-13T02:48:43;100818.77;;;5.67;67.34
55044;BME280;54902;50.420;18.854;2023-03-13T02:49:57;100813.34;;;5.67;67.39
55044;BME280;54902;50.420;18.854;2023-03-13T02:50:29;100819.62;;;5.67;67.33
55044;BME280;54902;50.420;18.854;2023-03-13T02:51:02;100815.94;;;5.68;67.46
55044;BME280;54902;50.420;18.854;2023-03-13T02:51:41;100808.77;;;5.67;67.48
55044;BME280;54902;50.420;18.854;2023-03-13T02:52:20;100819.62;;;5.67;67.51
55044;BME280;54902;50.420;18.854;2023-03-13T02:52:59;100815.94;;;5.68;67.52
55044;BME280;54902;50.420;18.854;2023-03-13T02:53:31;100818.65;;;5.68;67.49
55044;BME280;54902;50.420;18.854;2023-03-13T02:54:08;100829.49;;;5.68;67.59
55044;BME280;54902;50.420;18.854;2023-03-13T02:54:40;100825.83;;;5.69;67.50
55044;BME280;54902;50.420;18.854;2023-03-13T02:55:21;100816.80;;;5.69;67.42
55044;BME280;54902;50.420;18.854;2023-03-13T02:55:54;100830.25;;;5.70;67.46
55044;BME280;54902;50.420;18.854;2023-03-13T02:56:26;100817.70;;;5.69;67.48
55044;BME280;54902;50.420;18.854;2023-03-13T02:57:01;100824.83;;;5.70;67.49
55044;BME280;54902;50.420;18.854;2023-03-13T02:57:32;100827.54;;;5.70;67.49
55044;BME280;54902;50.420;18.854;2023-03-13T02:58:05;100826.58;;;5.71;67.55
55044;BME280;54902;50.420;18.854;2023-03-13T02:58:41;100814.88;;;5.71;67.59
55044;BME280;54902;50.420;18.854;2023-03-13T02:59:12;100819.34;;;5.72;67.54